createdAt,value
2019-02-14T00:00:23.262Z,12.17
2019-02-14T00:02:50.738Z,14.17
2019-02-14T00:05:18.235Z,13.77
2019-02-14T00:07:45.721Z,13.13
2019-02-14T00:10:13.205Z,13.23
2019-02-14T00:12:40.661Z,13.73
2019-02-14T00:15:08.825Z,13.93
2019-02-14T00:17:36.299Z,12.97
2019-02-14T00:20:04.356Z,14.03
2019-02-14T00:22:31.868Z,13.80
2019-02-14T00:24:59.336Z,14.37
2019-02-14T00:27:26.800Z,14.33
2019-02-14T00:29:54.290Z,13.77
2019-02-14T00:32:21.774Z,13.93
2019-02-14T00:34:49.482Z,15.10
2019-02-14T00:37:17.133Z,14.73
2019-02-14T00:39:44.591Z,13.60
2019-02-14T00:42:12.077Z,14.27
2019-02-14T00:44:39.574Z,13.33
2019-02-14T00:47:07.048Z,14.23
2019-02-14T00:49:34.614Z,13.97
2019-02-14T00:52:02.156Z,14.63
2019-02-14T00:54:29.649Z,14.87
2019-02-14T00:56:57.111Z,13.90
2019-02-14T00:59:24.627Z,14.50
2019-02-14T01:01:52.102Z,14.60
2019-02-14T01:04:19.763Z,14.73
2019-02-14T01:06:47.205Z,13.87
2019-02-14T01:09:14.697Z,13.77
2019-02-14T01:11:42.156Z,13.90
2019-02-14T01:14:09.678Z,13.60
2019-02-14T01:16:37.188Z,13.53
2019-02-14T01:19:04.643Z,12.77
2019-02-14T01:21:32.104Z,12.43
2019-02-14T01:23:59.905Z,13.40
2019-02-14T01:26:27.376Z,15.33
2019-02-14T01:28:54.831Z,14.80
2019-02-14T01:31:22.328Z,14.47
2019-02-14T01:33:49.871Z,13.50
2019-02-14T01:36:17.318Z,12.70
2019-02-14T01:38:44.817Z,12.67
2019-02-14T01:41:12.291Z,12.07
2019-02-14T01:43:39.788Z,12.87
2019-02-14T01:46:07.250Z,12.13
2019-02-14T01:48:34.725Z,10.80
2019-02-14T01:51:02.183Z,10.53
2019-02-14T01:53:29.712Z,12.07
2019-02-14T01:55:57.185Z,13.07
2019-02-14T01:58:24.681Z,11.50
2019-02-14T02:00:52.162Z,11.23
2019-02-14T02:03:19.628Z,11.80
2019-02-14T02:05:50.858Z,11.27
2019-02-14T02:08:16.543Z,11.80
2019-02-14T02:10:44.031Z,12.17
2019-02-14T02:13:11.574Z,12.13
2019-02-14T02:15:39.072Z,12.13
2019-02-14T02:18:06.594Z,14.47
2019-02-14T02:20:34.152Z,12.30
2019-02-14T02:23:01.676Z,12.20
2019-02-14T02:25:29.131Z,11.60
2019-02-14T02:27:56.591Z,11.67
2019-02-14T02:30:24.088Z,12.23
2019-02-14T02:32:51.647Z,11.73
2019-02-14T02:35:19.126Z,11.87
2019-02-14T02:37:46.581Z,12.57
2019-02-14T02:40:14.086Z,13.37
2019-02-14T02:42:41.651Z,12.73
2019-02-14T02:45:10.770Z,12.60
2019-02-14T02:47:38.258Z,12.70
2019-02-14T02:50:07.632Z,12.77
2019-02-14T02:52:35.093Z,13.13
2019-02-14T02:55:02.602Z,12.27
2019-02-14T02:57:30.225Z,12.97
2019-02-14T02:59:57.717Z,12.33
2019-02-14T03:02:25.255Z,13.97
2019-02-14T03:04:52.727Z,14.07
2019-02-14T03:07:20.233Z,14.07
2019-02-14T03:09:48.299Z,13.53
2019-02-14T03:12:15.764Z,12.80
2019-02-14T03:14:43.251Z,12.70
2019-02-14T03:17:10.801Z,13.37
2019-02-14T03:19:38.640Z,12.50
2019-02-14T03:22:06.096Z,13.10
2019-02-14T03:24:33.641Z,12.53
2019-02-14T03:27:01.117Z,11.20
2019-02-14T03:29:28.581Z,10.63
2019-02-14T03:31:56.080Z,11.40
2019-02-14T03:34:23.538Z,11.73
2019-02-14T03:36:51.065Z,10.87
2019-02-14T03:39:18.555Z,11.53
2019-02-14T03:41:46.058Z,11.60
2019-02-14T03:44:13.584Z,11.00
2019-02-14T03:46:41.074Z,11.97
2019-02-14T03:49:08.560Z,11.43
2019-02-14T03:51:36.049Z,10.87
2019-02-14T03:54:03.527Z,11.13
2019-02-14T03:56:31.036Z,11.13
2019-02-14T03:58:58.486Z,11.40
2019-02-14T04:01:26.036Z,11.47
2019-02-14T04:03:53.541Z,10.80
2019-02-14T04:06:27.387Z,11.40
2019-02-14T04:08:51.627Z,10.07
2019-02-14T04:11:19.166Z,10.73
2019-02-14T04:13:46.702Z,9.80
2019-02-14T04:16:14.179Z,10.50
2019-02-14T04:18:41.645Z,10.07
2019-02-14T04:21:09.138Z,9.50
2019-02-14T04:23:36.592Z,10.57
2019-02-14T04:26:04.114Z,9.17
2019-02-14T04:28:31.994Z,9.90
2019-02-14T04:30:59.481Z,9.70
2019-02-14T04:33:26.962Z,10.00
2019-02-14T04:35:54.461Z,9.33
2019-02-14T04:38:21.953Z,9.73
2019-02-14T04:40:49.434Z,9.70
2019-02-14T04:43:16.929Z,9.33
2019-02-14T04:45:44.429Z,9.20
2019-02-14T04:48:11.902Z,10.20
2019-02-14T04:50:39.455Z,10.50
2019-02-14T04:53:06.889Z,10.33
2019-02-14T04:55:34.409Z,10.30
2019-02-14T04:58:02.169Z,11.07
2019-02-14T05:00:29.654Z,10.50
2019-02-14T05:02:57.113Z,11.43
2019-02-14T05:05:24.615Z,10.87
2019-02-14T05:07:52.141Z,10.70
2019-02-14T05:10:19.634Z,10.43
2019-02-14T05:12:47.102Z,10.33
2019-02-14T05:15:14.582Z,10.70
2019-02-14T05:17:42.238Z,10.80
2019-02-14T05:20:09.704Z,13.67
2019-02-14T05:22:37.152Z,12.17
2019-02-14T05:25:05.145Z,12.67
2019-02-14T05:27:32.690Z,11.90
2019-02-14T05:30:00.378Z,11.00
2019-02-14T05:32:27.902Z,10.77
2019-02-14T05:34:55.580Z,10.73
2019-02-14T05:37:23.045Z,10.67
2019-02-14T05:39:50.761Z,10.10
2019-02-14T05:42:18.208Z,10.97
2019-02-14T05:44:45.675Z,10.40
2019-02-14T05:47:13.173Z,11.07
2019-02-14T05:49:40.628Z,10.47
2019-02-14T05:52:08.305Z,9.77
2019-02-14T05:54:35.811Z,10.20
2019-02-14T05:57:03.335Z,10.37
2019-02-14T05:59:30.848Z,10.77
2019-02-14T06:01:58.348Z,11.37
2019-02-14T06:04:25.912Z,11.57
2019-02-14T06:07:00.771Z,12.13
2019-02-14T06:09:22.741Z,11.90
2019-02-14T06:11:50.281Z,10.63
2019-02-14T06:14:17.809Z,11.37
2019-02-14T06:16:45.282Z,11.27
2019-02-14T06:19:12.811Z,12.13
2019-02-14T06:21:40.326Z,11.57
2019-02-14T06:24:07.793Z,11.73
2019-02-14T06:26:35.323Z,14.57
2019-02-14T06:29:02.808Z,12.47
2019-02-14T06:31:30.276Z,12.10
2019-02-14T06:33:58.125Z,10.83
2019-02-14T06:36:25.609Z,10.43
2019-02-14T06:38:53.074Z,9.87
2019-02-14T06:41:20.626Z,10.80
2019-02-14T06:43:48.142Z,10.17
2019-02-14T06:46:15.686Z,9.90
2019-02-14T06:48:43.172Z,10.70
2019-02-14T06:51:10.679Z,10.83
2019-02-14T06:53:38.130Z,10.63
2019-02-14T06:56:05.671Z,10.47
2019-02-14T06:58:33.132Z,10.90
2019-02-14T07:01:00.617Z,10.43
2019-02-14T07:03:28.082Z,11.23
2019-02-14T07:05:55.815Z,11.80
2019-02-14T07:08:23.290Z,11.87
2019-02-14T07:10:50.729Z,12.43
2019-02-14T07:13:18.267Z,12.20
2019-02-14T07:15:45.800Z,11.97
2019-02-14T07:18:13.217Z,11.53
2019-02-14T07:20:40.737Z,11.10
2019-02-14T07:23:08.221Z,12.10
2019-02-14T07:25:35.720Z,11.40
2019-02-14T07:28:03.589Z,11.93
2019-02-14T07:30:31.047Z,12.50
2019-02-14T07:32:58.533Z,11.47
2019-02-14T07:35:26.024Z,12.43
2019-02-14T07:37:53.538Z,12.67
2019-02-14T07:40:20.995Z,15.10
2019-02-14T07:42:48.563Z,13.67
2019-02-14T07:45:16.060Z,13.80
2019-02-14T07:47:43.518Z,15.07
2019-02-14T07:50:11.051Z,14.23
2019-02-14T07:52:38.517Z,14.43
2019-02-14T07:55:06.998Z,12.70
2019-02-14T07:57:34.531Z,12.33
2019-02-14T08:00:02.027Z,12.50
2019-02-14T08:02:29.527Z,11.07
2019-02-14T08:04:57.033Z,11.27
2019-02-14T08:07:24.495Z,11.20
2019-02-14T08:09:52.002Z,10.13
2019-02-14T08:12:19.527Z,11.10
2019-02-14T08:14:47.048Z,11.13
2019-02-14T08:17:14.544Z,10.77
2019-02-14T08:19:42.039Z,10.30
2019-02-14T08:22:09.524Z,10.00
2019-02-14T08:24:36.981Z,10.20
2019-02-14T08:27:04.503Z,10.30
2019-02-14T08:29:32.084Z,10.07
2019-02-14T08:31:59.562Z,9.97
2019-02-14T08:34:27.688Z,10.77
2019-02-14T08:36:55.192Z,9.57
2019-02-14T08:39:22.684Z,10.57
2019-02-14T08:41:50.188Z,10.73
2019-02-14T08:44:17.636Z,11.17
2019-02-14T08:46:45.100Z,11.67
2019-02-14T08:49:12.649Z,11.53
2019-02-14T08:51:40.140Z,11.97
2019-02-14T08:54:07.620Z,11.97
2019-02-14T08:56:35.127Z,13.73
2019-02-14T08:59:02.584Z,12.90
2019-02-14T09:01:30.135Z,15.33
2019-02-14T09:03:57.774Z,17.63
2019-02-14T09:06:25.260Z,13.90
2019-02-14T09:08:52.828Z,14.23
2019-02-14T09:11:20.282Z,13.40
2019-02-14T09:13:47.834Z,13.83
2019-02-14T09:16:15.310Z,14.07
2019-02-14T09:18:42.784Z,13.30
2019-02-14T09:21:10.285Z,13.00
2019-02-14T09:23:37.755Z,13.60
2019-02-14T09:26:05.249Z,13.63
2019-02-14T09:28:32.726Z,13.33
2019-02-14T09:31:00.178Z,14.60
2019-02-14T09:33:27.695Z,15.30
2019-02-14T09:35:55.190Z,13.50
2019-02-14T09:38:22.667Z,14.47
2019-02-14T09:40:50.192Z,14.23
2019-02-14T09:43:17.717Z,13.87
2019-02-14T09:45:45.202Z,13.60
2019-02-14T09:48:12.803Z,14.03
2019-02-14T09:50:40.338Z,13.63
2019-02-14T09:53:07.849Z,14.70
2019-02-14T09:55:35.314Z,13.70
2019-02-14T09:58:02.833Z,12.80
2019-02-14T10:00:30.349Z,13.60
2019-02-14T10:02:57.836Z,13.23
2019-02-14T10:05:25.358Z,13.93
2019-02-14T10:07:52.864Z,13.43
2019-02-14T10:10:20.464Z,14.17
2019-02-14T10:12:47.965Z,13.87
2019-02-14T10:15:15.966Z,14.70
2019-02-14T10:17:43.480Z,15.07
2019-02-14T10:20:12.879Z,14.57
2019-02-14T10:22:40.503Z,14.93
2019-02-14T10:25:08.008Z,14.63
2019-02-14T10:27:35.726Z,14.97
2019-02-14T10:30:03.813Z,15.50
2019-02-14T10:32:31.283Z,14.53
2019-02-14T10:34:58.780Z,14.70
2019-02-14T10:37:26.294Z,14.80
2019-02-14T10:39:53.863Z,15.10
2019-02-14T10:42:21.238Z,14.47
2019-02-14T10:44:48.777Z,14.90
2019-02-14T10:47:16.248Z,13.47
2019-02-14T10:49:43.721Z,14.27
2019-02-14T10:52:11.224Z,13.90
2019-02-14T10:54:38.704Z,13.97
2019-02-14T10:57:06.212Z,13.47
2019-02-14T10:59:33.728Z,14.10
2019-02-14T11:02:01.178Z,12.97
2019-02-14T11:04:28.706Z,13.23
2019-02-14T11:06:56.174Z,14.07
2019-02-14T11:09:23.677Z,13.63
2019-02-14T11:11:51.160Z,13.93
2019-02-14T11:14:27.462Z,14.07
2019-02-14T11:16:49.110Z,13.70
2019-02-14T11:19:16.615Z,13.40
2019-02-14T11:21:44.027Z,15.10
2019-02-14T11:24:11.502Z,13.80
2019-02-14T11:26:38.870Z,14.63
2019-02-14T11:29:06.418Z,28.27
2019-02-14T11:31:34.727Z,13.53
2019-02-14T11:34:02.442Z,13.30
2019-02-14T11:36:29.922Z,13.87
2019-02-14T11:38:57.666Z,14.50
2019-02-14T11:41:25.122Z,13.37
2019-02-14T11:43:52.613Z,13.73
2019-02-14T11:46:20.142Z,12.90
2019-02-14T11:48:48.012Z,12.83
2019-02-14T11:51:15.625Z,12.17
2019-02-14T11:53:43.098Z,10.67
2019-02-14T11:56:10.570Z,9.73
2019-02-14T11:58:38.062Z,9.77
2019-02-14T12:01:05.532Z,10.37
2019-02-14T12:03:33.043Z,10.50
2019-02-14T12:06:00.521Z,9.97
2019-02-14T12:08:28.008Z,8.60
2019-02-14T12:10:55.536Z,10.20
2019-02-14T12:13:22.991Z,9.97
2019-02-14T12:15:50.525Z,9.70
2019-02-14T12:18:18.035Z,10.27
2019-02-14T12:20:45.509Z,10.03
2019-02-14T12:23:13.011Z,10.47
2019-02-14T12:25:40.532Z,10.23
2019-02-14T12:28:08.039Z,10.10
2019-02-14T12:30:35.508Z,9.33
2019-02-14T12:33:02.989Z,11.57
2019-02-14T12:35:30.453Z,11.13
2019-02-14T12:37:57.938Z,11.30
2019-02-14T12:40:25.488Z,14.37
2019-02-14T12:42:52.951Z,13.67
2019-02-14T12:45:23.618Z,12.30
2019-02-14T12:47:49.783Z,11.90
2019-02-14T12:50:17.278Z,11.83
2019-02-14T12:52:44.749Z,10.43
2019-02-14T12:55:12.271Z,9.97
2019-02-14T12:57:39.776Z,9.87
2019-02-14T13:00:11.025Z,10.93
2019-02-14T13:02:38.745Z,11.53
2019-02-14T13:05:07.408Z,10.90
2019-02-14T13:07:34.877Z,11.33
2019-02-14T13:10:02.765Z,11.47
2019-02-14T13:12:30.266Z,10.73
2019-02-14T13:14:57.746Z,10.27
2019-02-14T13:17:25.226Z,10.63
2019-02-14T13:19:52.723Z,9.90
2019-02-14T13:22:20.166Z,10.40
2019-02-14T13:24:47.652Z,10.47
2019-02-14T13:27:15.155Z,10.07
2019-02-14T13:29:42.627Z,10.60
2019-02-14T13:32:10.119Z,11.47
2019-02-14T13:34:37.644Z,11.00
2019-02-14T13:37:05.996Z,10.23
2019-02-14T13:39:33.716Z,10.03
2019-02-14T13:42:01.261Z,10.93
2019-02-14T13:44:29.011Z,11.10
2019-02-14T13:46:56.498Z,10.93
2019-02-14T13:49:24.124Z,10.87
2019-02-14T13:51:51.619Z,12.13
2019-02-14T13:54:19.198Z,11.37
2019-02-14T13:56:53.858Z,11.40
2019-02-14T13:59:16.011Z,10.43
2019-02-14T14:01:43.533Z,11.73
2019-02-14T14:04:10.999Z,11.47
2019-02-14T14:06:38.464Z,11.07
2019-02-14T14:09:08.531Z,11.57
2019-02-14T14:11:36.090Z,12.27
2019-02-14T14:14:03.549Z,11.30
2019-02-14T14:16:31.019Z,11.10
2019-02-14T14:19:06.182Z,10.63
2019-02-14T14:21:27.810Z,10.50
2019-02-14T14:23:55.329Z,10.27
2019-02-14T14:26:22.811Z,9.70
2019-02-14T14:28:50.318Z,10.20
2019-02-14T14:31:17.816Z,10.40
2019-02-14T14:33:45.290Z,10.80
2019-02-14T14:36:12.740Z,10.40
2019-02-14T14:38:40.380Z,10.47
2019-02-14T14:41:07.926Z,10.37
2019-02-14T14:43:57.933Z,10.10
2019-02-14T14:46:32.197Z,10.07
2019-02-14T14:48:59.690Z,10.60
2019-02-14T14:51:27.193Z,10.57
2019-02-14T14:53:54.692Z,10.87
2019-02-14T14:56:22.184Z,10.37
2019-02-14T14:58:52.454Z,10.47
2019-02-14T15:01:19.964Z,9.67
2019-02-14T15:03:47.460Z,7.90
2019-02-14T15:06:15.000Z,7.93
2019-02-14T15:08:42.705Z,9.33
2019-02-14T15:11:10.212Z,8.13
2019-02-14T15:13:37.690Z,9.07
2019-02-14T15:16:05.159Z,9.67
2019-02-14T15:18:32.688Z,8.73
2019-02-14T15:21:00.155Z,8.13
2019-02-14T15:23:27.698Z,7.40
2019-02-14T15:25:55.183Z,8.10
2019-02-14T15:28:22.669Z,7.27
2019-02-14T15:30:50.203Z,7.27
2019-02-14T15:33:17.723Z,6.73
2019-02-14T15:35:45.201Z,6.90
2019-02-14T15:38:12.714Z,7.40
2019-02-14T15:40:40.240Z,7.53
2019-02-14T15:43:07.732Z,7.30
2019-02-14T15:45:35.595Z,7.20
2019-02-14T15:48:03.046Z,7.13
2019-02-14T15:50:32.067Z,7.40
2019-02-14T15:52:59.625Z,7.07
2019-02-14T15:55:27.127Z,7.77
2019-02-14T15:57:54.601Z,7.20
2019-02-14T16:00:22.298Z,8.40
2019-02-14T16:02:50.772Z,7.90
2019-02-14T16:05:19.191Z,8.00
2019-02-14T16:07:46.669Z,7.80
2019-02-14T16:10:18.526Z,7.63
2019-02-14T16:12:45.734Z,6.90
2019-02-14T16:15:12.785Z,8.23
2019-02-14T16:17:40.325Z,7.33
2019-02-14T16:20:07.804Z,7.40
2019-02-14T16:22:35.256Z,7.83
2019-02-14T16:25:04.495Z,8.70
2019-02-14T16:27:32.322Z,8.00
2019-02-14T16:29:59.784Z,7.40
2019-02-14T16:32:27.302Z,7.43
2019-02-14T16:34:54.853Z,7.87
2019-02-14T16:37:22.374Z,8.03
2019-02-14T16:39:51.835Z,7.97
2019-02-14T16:42:19.304Z,6.93
2019-02-14T16:44:46.819Z,7.83
2019-02-14T16:47:14.307Z,7.97
2019-02-14T16:49:42.004Z,8.10
2019-02-14T16:52:09.525Z,7.67
2019-02-14T16:54:37.046Z,10.30
2019-02-14T16:57:04.563Z,9.80
2019-02-14T16:59:32.136Z,7.97
2019-02-14T17:01:59.632Z,8.50
2019-02-14T17:04:27.154Z,8.03
2019-02-14T17:06:54.710Z,8.37
2019-02-14T17:09:22.584Z,7.20
2019-02-14T17:11:50.053Z,7.00
2019-02-14T17:14:17.571Z,8.27
2019-02-14T17:16:45.123Z,7.53
2019-02-14T17:19:12.661Z,8.43
2019-02-14T17:21:40.227Z,9.63
2019-02-14T17:24:07.688Z,10.30
2019-02-14T17:26:35.262Z,8.97
2019-02-14T17:29:02.718Z,8.30
2019-02-14T17:31:30.479Z,8.40
2019-02-14T17:33:58.043Z,8.00
2019-02-14T17:36:25.554Z,8.13
2019-02-14T17:38:53.083Z,7.87
2019-02-14T17:41:20.589Z,8.23
2019-02-14T17:43:48.144Z,9.97
2019-02-14T17:46:15.669Z,9.47
2019-02-14T17:48:43.154Z,8.17
2019-02-14T17:51:10.740Z,8.77
2019-02-14T17:53:38.281Z,9.00
2019-02-14T17:56:05.797Z,9.27
2019-02-14T17:58:33.552Z,10.80
2019-02-14T18:01:01.285Z,9.53
2019-02-14T18:03:28.828Z,8.90
2019-02-14T18:05:56.355Z,9.00
2019-02-14T18:08:23.879Z,10.40
2019-02-14T18:10:54.988Z,10.67
2019-02-14T18:13:20.713Z,12.60
2019-02-14T18:15:48.223Z,10.57
2019-02-14T18:18:15.775Z,14.20
2019-02-14T18:20:43.330Z,12.97
2019-02-14T18:23:11.346Z,12.77
2019-02-14T18:25:38.801Z,11.27
2019-02-14T18:28:06.295Z,10.00
2019-02-14T18:30:33.846Z,10.17
2019-02-14T18:33:01.357Z,9.67
2019-02-14T18:35:28.848Z,11.60
2019-02-14T18:37:56.375Z,13.27
2019-02-14T18:40:23.908Z,12.93
2019-02-14T18:42:51.399Z,11.77
2019-02-14T18:45:18.864Z,11.70
2019-02-14T18:47:46.401Z,12.13
2019-02-14T18:50:13.872Z,11.57
2019-02-14T18:52:41.377Z,12.23
2019-02-14T18:55:09.039Z,11.43
2019-02-14T18:57:36.501Z,11.17
2019-02-14T19:00:07.700Z,13.70
2019-02-14T19:02:35.185Z,12.20
2019-02-14T19:05:02.962Z,12.37
2019-02-14T19:07:31.616Z,12.50
2019-02-14T19:09:59.168Z,12.97
2019-02-14T19:12:26.677Z,12.97
2019-02-14T19:14:54.208Z,12.23
2019-02-14T19:17:21.694Z,13.47
2019-02-14T19:19:51.874Z,14.73
2019-02-14T19:22:19.363Z,12.07
2019-02-14T19:24:46.970Z,12.10
2019-02-14T19:27:14.481Z,13.87
2019-02-14T19:29:41.961Z,11.43
2019-02-14T19:32:09.492Z,11.50
2019-02-14T19:34:36.968Z,11.10
2019-02-14T19:37:04.461Z,10.50
2019-02-14T19:39:31.983Z,12.07
2019-02-14T19:42:00.562Z,12.30
2019-02-14T19:44:28.068Z,12.10
2019-02-14T19:46:55.559Z,12.73
2019-02-14T19:49:23.077Z,11.80
2019-02-14T19:51:50.682Z,12.00
2019-02-14T19:54:18.184Z,13.40
2019-02-14T19:56:45.722Z,14.47
2019-02-14T19:59:13.198Z,15.40
2019-02-14T20:01:40.675Z,17.13
2019-02-14T20:04:08.190Z,18.87
2019-02-14T20:06:35.865Z,16.77
2019-02-14T20:09:04.869Z,16.30
2019-02-14T20:11:36.565Z,14.10
2019-02-14T20:14:01.708Z,14.57
2019-02-14T20:16:29.186Z,15.33
2019-02-14T20:18:56.698Z,15.27
2019-02-14T20:21:24.239Z,14.33
2019-02-14T20:23:51.744Z,14.57
2019-02-14T20:26:19.480Z,15.33
2019-02-14T20:28:46.963Z,16.33
2019-02-14T20:31:14.469Z,16.67
2019-02-14T20:33:41.977Z,15.87
2019-02-14T20:36:09.499Z,15.53
2019-02-14T20:38:36.955Z,14.73
2019-02-14T20:41:04.435Z,15.00
2019-02-14T20:43:31.990Z,15.27
2019-02-14T20:45:59.605Z,12.93
2019-02-14T20:48:27.102Z,16.13
2019-02-14T20:50:54.647Z,15.30
2019-02-14T20:53:22.241Z,15.13
2019-02-14T20:55:49.799Z,15.03
2019-02-14T20:58:17.289Z,14.53
2019-02-14T21:00:44.846Z,14.47
2019-02-14T21:03:12.321Z,15.60
2019-02-14T21:05:39.881Z,14.50
2019-02-14T21:08:07.388Z,16.23
2019-02-14T21:10:34.941Z,15.97
2019-02-14T21:13:02.440Z,17.53
2019-02-14T21:15:29.938Z,17.00
2019-02-14T21:17:57.454Z,17.60
2019-02-14T21:20:25.023Z,15.30
2019-02-14T21:22:52.458Z,15.33
2019-02-14T21:25:22.874Z,15.03
2019-02-14T21:27:49.420Z,14.97
2019-02-14T21:30:16.929Z,15.40
2019-02-14T21:32:44.425Z,15.33
2019-02-14T21:35:11.969Z,15.23
2019-02-14T21:37:39.505Z,16.23
2019-02-14T21:40:08.782Z,16.00
2019-02-14T21:42:36.239Z,16.77
2019-02-14T21:45:04.604Z,15.90
2019-02-14T21:47:32.112Z,16.00
2019-02-14T21:49:59.603Z,15.97
2019-02-14T21:52:27.109Z,15.77
2019-02-14T21:54:54.607Z,16.73
2019-02-14T21:57:22.130Z,15.20
2019-02-14T21:59:49.669Z,15.23
2019-02-14T22:02:17.228Z,15.07
2019-02-14T22:04:45.709Z,15.93
2019-02-14T22:07:13.179Z,15.47
2019-02-14T22:09:40.754Z,15.93
2019-02-14T22:12:08.259Z,16.00
2019-02-14T22:14:35.758Z,16.30
2019-02-14T22:17:03.308Z,15.47
2019-02-14T22:19:31.047Z,18.60
2019-02-14T22:21:58.547Z,17.53
2019-02-14T22:24:26.004Z,16.27
2019-02-14T22:26:53.545Z,16.97
2019-02-14T22:29:21.065Z,17.33
2019-02-14T22:31:48.543Z,18.03
2019-02-14T22:34:16.063Z,19.20
2019-02-14T22:36:43.549Z,18.20
2019-02-14T22:39:11.106Z,18.27
2019-02-14T22:41:38.736Z,19.10
2019-02-14T22:44:06.272Z,18.57
2019-02-14T22:46:33.829Z,19.97
2019-02-14T22:49:01.297Z,19.53
2019-02-14T22:51:28.774Z,18.53
2019-02-14T22:53:57.338Z,19.13
2019-02-14T22:56:24.825Z,19.40
2019-02-14T22:58:52.373Z,20.20
2019-02-14T23:01:19.878Z,19.30
2019-02-14T23:03:47.405Z,19.60
2019-02-14T23:06:14.956Z,19.70
2019-02-14T23:08:42.433Z,19.50
2019-02-14T23:11:09.913Z,19.73
2019-02-14T23:13:37.425Z,18.60
2019-02-14T23:16:04.942Z,19.30
2019-02-14T23:18:32.454Z,19.13
2019-02-14T23:20:59.948Z,19.80
2019-02-14T23:23:27.420Z,20.37
2019-02-14T23:25:54.925Z,22.27
2019-02-14T23:28:22.461Z,20.03
2019-02-14T23:30:49.970Z,18.53
2019-02-14T23:33:17.493Z,19.83
2019-02-14T23:35:45.023Z,19.87
2019-02-14T23:38:12.484Z,21.00
2019-02-14T23:40:39.986Z,21.37
2019-02-14T23:43:07.547Z,20.37
2019-02-14T23:45:37.386Z,22.57
2019-02-14T23:48:04.874Z,21.30
2019-02-14T23:50:32.380Z,21.13
2019-02-14T23:52:59.952Z,21.10
2019-02-14T23:55:27.436Z,21.63
2019-02-14T23:57:55.075Z,20.60
